createdAt,value
2018-07-02T00:01:11.787Z,14.70
2018-07-02T00:06:34.107Z,14.50
2018-07-02T00:09:02.434Z,14.40
2018-07-02T00:11:31.282Z,14.40
2018-07-02T00:13:59.418Z,14.40
2018-07-02T00:16:28.774Z,14.40
2018-07-02T00:18:57.858Z,14.40
2018-07-02T00:21:26.028Z,14.20
2018-07-02T00:23:54.369Z,14.10
2018-07-02T00:26:27.096Z,14.10
2018-07-02T00:28:55.339Z,14.10
2018-07-02T00:31:23.394Z,14.10
2018-07-02T00:33:52.067Z,14.00
2018-07-02T00:36:20.505Z,13.60
2018-07-02T00:38:49.169Z,13.60
2018-07-02T00:41:18.353Z,13.70
2018-07-02T00:43:46.962Z,13.60
2018-07-02T00:46:15.078Z,13.70
2018-07-02T00:48:44.278Z,13.50
2018-07-02T00:51:14.061Z,13.40
2018-07-02T00:53:42.349Z,13.20
2018-07-02T00:56:10.650Z,13.20
2018-07-02T00:58:39.061Z,13.30
2018-07-02T01:01:07.440Z,13.30
2018-07-02T01:03:35.702Z,13.40
2018-07-02T01:06:03.811Z,13.40
2018-07-02T01:11:00.274Z,13.50
2018-07-02T01:13:28.672Z,13.50
2018-07-02T01:15:57.444Z,13.60
2018-07-02T01:18:25.534Z,13.20
2018-07-02T01:20:53.672Z,13.10
2018-07-02T01:23:21.927Z,12.70
2018-07-02T01:28:20.219Z,12.50
2018-07-02T01:30:48.679Z,12.40
2018-07-02T01:33:17.033Z,12.30
2018-07-02T01:35:45.317Z,12.30
2018-07-02T01:38:13.490Z,12.30
2018-07-02T01:40:41.558Z,12.30
2018-07-02T01:43:09.574Z,12.10
2018-07-02T01:45:37.809Z,11.90
2018-07-02T01:48:05.836Z,12.00
2018-07-02T01:50:34.100Z,12.10
2018-07-02T01:55:31.402Z,12.30
2018-07-02T01:58:00.339Z,12.20
2018-07-02T02:00:28.672Z,12.10
2018-07-02T02:02:56.928Z,12.20
2018-07-02T02:05:25.222Z,12.10
2018-07-02T02:07:53.398Z,12.10
2018-07-02T02:10:21.767Z,12.20
2018-07-02T02:12:54.003Z,12.20
2018-07-02T02:15:23.201Z,12.30
2018-07-02T02:20:20.687Z,11.80
2018-07-02T02:22:49.197Z,11.50
2018-07-02T02:25:18.698Z,11.50
2018-07-02T02:27:47.033Z,11.60
2018-07-02T02:30:15.168Z,11.60
2018-07-02T02:32:44.433Z,11.60
2018-07-02T02:35:13.482Z,11.50
2018-07-02T02:37:42.852Z,11.40
2018-07-02T02:40:11.094Z,11.30
2018-07-02T02:42:39.400Z,11.30
2018-07-02T02:45:07.824Z,11.00
2018-07-02T02:47:36.108Z,11.00
2018-07-02T02:50:04.215Z,10.80
2018-07-02T02:52:32.594Z,10.90
2018-07-02T02:55:03.668Z,11.00
2018-07-02T02:57:31.744Z,11.10
2018-07-02T02:59:59.794Z,11.00
2018-07-02T03:02:27.914Z,10.90
2018-07-02T03:04:56.038Z,10.70
2018-07-02T03:07:25.038Z,10.60
2018-07-02T03:09:53.260Z,10.70
2018-07-02T03:12:22.463Z,10.70
2018-07-02T03:14:50.570Z,10.80
2018-07-02T03:17:18.698Z,10.90
2018-07-02T03:19:47.176Z,11.00
2018-07-02T03:22:15.287Z,10.90
2018-07-02T03:24:43.650Z,10.90
2018-07-02T03:27:11.751Z,10.90
2018-07-02T03:29:39.792Z,10.70
2018-07-02T03:32:08.041Z,10.70
2018-07-02T03:37:04.311Z,10.70
2018-07-02T03:39:32.482Z,10.70
2018-07-02T03:42:01.091Z,10.70
2018-07-02T03:44:29.223Z,10.70
2018-07-02T03:46:57.296Z,10.70
2018-07-02T03:49:25.628Z,10.80
2018-07-02T03:51:54.633Z,10.70
2018-07-02T03:54:22.699Z,10.80
2018-07-02T03:56:51.163Z,10.70
2018-07-02T03:59:19.147Z,10.70
2018-07-02T04:01:47.933Z,10.50
2018-07-02T04:04:16.254Z,10.60
2018-07-02T04:09:13.885Z,10.40
2018-07-02T04:11:42.305Z,10.30
2018-07-02T04:14:11.556Z,10.40
2018-07-02T04:16:39.609Z,10.40
2018-07-02T04:19:11.091Z,10.40
2018-07-02T04:21:40.565Z,10.40
2018-07-02T04:24:08.906Z,10.30
2018-07-02T04:26:37.990Z,10.30
2018-07-02T04:34:03.730Z,10.40
2018-07-02T04:36:32.266Z,10.60
2018-07-02T04:39:00.691Z,10.70
2018-07-02T04:41:29.736Z,10.70
2018-07-02T04:43:58.252Z,10.90
2018-07-02T04:46:26.521Z,11.00
2018-07-02T04:48:54.901Z,11.30
2018-07-02T04:51:23.046Z,11.50
2018-07-02T04:53:51.317Z,11.50
2018-07-02T04:56:19.653Z,11.40
2018-07-02T04:58:48.557Z,11.50
2018-07-02T05:01:16.788Z,11.60
2018-07-02T05:03:44.875Z,11.60
2018-07-02T05:06:12.925Z,11.70
2018-07-02T05:08:40.982Z,11.80
2018-07-02T05:11:09.018Z,12.00
2018-07-02T05:13:38.043Z,12.10
2018-07-02T05:16:06.085Z,12.20
2018-07-02T05:18:34.430Z,12.00
2018-07-02T05:21:02.478Z,11.90
2018-07-02T05:23:30.472Z,11.90
2018-07-02T05:25:58.726Z,11.90
2018-07-02T05:28:27.944Z,12.00
2018-07-02T05:30:58.839Z,12.00
2018-07-02T05:33:26.899Z,12.20
2018-07-02T05:35:54.952Z,12.20
2018-07-02T05:38:23.155Z,12.30
2018-07-02T05:40:52.110Z,12.30
2018-07-02T05:43:20.447Z,12.30
2018-07-02T05:45:49.214Z,12.20
2018-07-02T05:48:17.918Z,12.30
2018-07-02T05:50:46.783Z,12.40
2018-07-02T05:53:14.754Z,12.50
2018-07-02T05:55:42.853Z,12.60
2018-07-02T05:58:12.004Z,12.70
2018-07-02T06:00:40.266Z,12.80
2018-07-02T06:03:09.150Z,12.90
2018-07-02T06:05:37.292Z,13.00
2018-07-02T06:08:08.425Z,13.30
2018-07-02T06:10:36.531Z,13.40
2018-07-02T06:13:04.593Z,13.40
2018-07-02T06:15:32.595Z,13.50
2018-07-02T06:18:00.838Z,13.70
2018-07-02T06:20:28.882Z,13.80
2018-07-02T06:22:56.970Z,14.10
2018-07-02T06:25:25.023Z,14.30
2018-07-02T06:27:53.110Z,14.40
2018-07-02T06:30:21.332Z,14.70
2018-07-02T06:32:49.494Z,14.80
2018-07-02T06:35:17.652Z,14.80
2018-07-02T06:37:46.464Z,14.70
2018-07-02T06:42:43.218Z,14.90
2018-07-02T06:45:11.631Z,15.20
2018-07-02T06:47:40.485Z,15.60
2018-07-02T06:50:08.567Z,16.50
2018-07-02T06:52:38.036Z,18.70
2018-07-02T06:55:06.676Z,20.40
2018-07-02T06:57:35.040Z,21.60
2018-07-02T07:00:03.192Z,22.60
2018-07-02T07:02:32.307Z,22.60
2018-07-02T07:05:01.537Z,23.70
2018-07-02T07:07:29.724Z,24.40
2018-07-02T07:09:58.754Z,23.20
2018-07-02T07:12:27.533Z,23.50
2018-07-02T07:14:56.812Z,22.80
2018-07-02T07:17:25.080Z,24.30
2018-07-02T07:19:55.278Z,23.50
2018-07-02T07:22:23.633Z,24.40
2018-07-02T07:24:51.808Z,25.50
2018-07-02T07:27:19.816Z,25.00
2018-07-02T07:29:51.603Z,24.10
2018-07-02T07:32:19.609Z,24.50
2018-07-02T07:34:47.689Z,26.40
2018-07-02T07:37:15.742Z,24.80
2018-07-02T07:39:44.584Z,25.30
2018-07-02T07:42:15.610Z,24.70
2018-07-02T07:44:45.573Z,23.90
2018-07-02T07:47:15.280Z,23.90
2018-07-02T07:49:43.502Z,24.60
2018-07-02T07:52:11.734Z,24.30
2018-07-02T07:54:39.896Z,24.10
2018-07-02T07:57:08.362Z,24.50
2018-07-02T07:59:37.342Z,23.70
2018-07-02T08:02:06.619Z,24.30
2018-07-02T08:04:35.631Z,24.80
2018-07-02T08:07:05.010Z,24.50
2018-07-02T08:09:34.305Z,24.50
2018-07-02T08:12:02.570Z,24.60
2018-07-02T08:14:30.706Z,25.00
2018-07-02T08:16:58.733Z,23.80
2018-07-02T08:19:27.509Z,24.70
2018-07-02T08:21:55.718Z,24.40
2018-07-02T08:24:23.920Z,23.90
2018-07-02T08:26:52.949Z,25.90
2018-07-02T08:29:21.152Z,25.20
2018-07-02T08:31:49.377Z,25.30
2018-07-02T08:34:19.118Z,26.00
2018-07-02T08:36:47.653Z,26.90
2018-07-02T08:39:15.761Z,26.10
2018-07-02T08:41:43.838Z,24.80
2018-07-02T08:44:12.007Z,25.20
2018-07-02T08:46:40.686Z,24.00
2018-07-02T08:49:08.732Z,24.50
2018-07-02T08:51:36.838Z,25.30
2018-07-02T08:54:05.082Z,25.00
2018-07-02T08:56:33.280Z,25.30
2018-07-02T08:59:01.528Z,26.70
2018-07-02T09:01:29.609Z,26.00
2018-07-02T09:03:57.678Z,25.90
2018-07-02T09:06:26.727Z,26.30
2018-07-02T09:08:55.845Z,25.50
2018-07-02T09:11:24.039Z,25.50
2018-07-02T09:13:52.157Z,25.80
2018-07-02T09:16:20.356Z,25.20
2018-07-02T09:18:49.477Z,25.70
2018-07-02T09:21:17.539Z,25.50
2018-07-02T09:23:46.394Z,25.00
2018-07-02T09:26:15.195Z,24.90
2018-07-02T09:28:44.190Z,25.50
2018-07-02T09:31:13.062Z,26.20
2018-07-02T09:33:41.148Z,25.80
2018-07-02T09:36:09.617Z,26.00
2018-07-02T09:38:37.697Z,26.60
2018-07-02T09:41:05.742Z,28.30
2018-07-02T09:43:34.819Z,28.70
2018-07-02T09:46:04.028Z,26.30
2018-07-02T09:48:32.035Z,27.60
2018-07-02T09:51:00.626Z,27.20
2018-07-02T09:53:28.714Z,27.70
2018-07-02T09:55:56.946Z,27.10
2018-07-02T09:58:25.391Z,25.70
2018-07-02T10:00:53.462Z,25.60
2018-07-02T10:03:21.566Z,24.50
2018-07-02T10:05:49.677Z,23.10
2018-07-02T10:08:20.652Z,22.90
2018-07-02T10:10:48.786Z,23.20
2018-07-02T10:13:17.163Z,23.40
2018-07-02T10:15:46.112Z,23.70
2018-07-02T10:18:14.950Z,23.90
2018-07-02T10:20:44.198Z,23.90
2018-07-02T10:23:13.311Z,23.00
2018-07-02T10:25:41.620Z,23.20
2018-07-02T10:28:09.968Z,22.70
2018-07-02T10:30:38.053Z,23.20
2018-07-02T10:33:06.240Z,23.20
2018-07-02T10:35:34.374Z,23.40
2018-07-02T10:38:03.599Z,22.70
2018-07-02T10:40:32.055Z,22.80
2018-07-02T10:43:01.357Z,23.40
2018-07-02T10:45:29.526Z,23.60
2018-07-02T10:47:58.822Z,23.60
2018-07-02T10:50:27.827Z,23.90
2018-07-02T10:52:56.093Z,23.00
2018-07-02T10:55:24.822Z,22.90
2018-07-02T10:57:52.928Z,23.10
2018-07-02T11:00:22.160Z,23.30
2018-07-02T11:02:50.308Z,23.50
2018-07-02T11:05:18.363Z,23.20
2018-07-02T11:07:46.353Z,23.40
2018-07-02T11:10:14.395Z,23.20
2018-07-02T11:12:42.555Z,23.40
2018-07-02T11:15:10.682Z,23.30
2018-07-02T11:17:41.712Z,23.80
2018-07-02T11:20:10.190Z,23.40
2018-07-02T11:22:38.605Z,23.60
2018-07-02T11:25:07.962Z,23.50
2018-07-02T11:27:36.082Z,23.50
2018-07-02T11:30:05.194Z,23.30
2018-07-02T11:32:33.505Z,23.40
2018-07-02T11:35:03.024Z,23.30
2018-07-02T11:37:31.400Z,23.60
2018-07-02T11:39:59.591Z,23.70
2018-07-02T11:42:28.739Z,23.50
2018-07-02T11:44:57.746Z,23.50
2018-07-02T11:47:28.564Z,23.30
2018-07-02T11:49:56.873Z,23.80
2018-07-02T11:52:25.381Z,23.90
2018-07-02T11:54:53.343Z,24.00
2018-07-02T11:57:21.535Z,24.00
2018-07-02T11:59:50.909Z,23.80
2018-07-02T12:02:18.982Z,23.70
2018-07-02T12:04:49.724Z,23.60
2018-07-02T12:07:17.932Z,23.90
2018-07-02T12:09:46.835Z,24.40
2018-07-02T12:12:14.894Z,24.50
2018-07-02T12:14:44.695Z,24.30
2018-07-02T12:17:12.787Z,24.30
2018-07-02T12:19:41.199Z,24.20
2018-07-02T12:22:09.527Z,24.10
2018-07-02T12:24:38.203Z,24.60
2018-07-02T12:27:06.481Z,24.80
2018-07-02T12:29:34.481Z,24.80
2018-07-02T12:32:02.515Z,25.10
2018-07-02T12:34:30.561Z,25.40
2018-07-02T12:36:58.573Z,25.40
2018-07-02T12:39:26.678Z,25.30
2018-07-02T12:41:54.751Z,25.30
2018-07-02T12:44:23.101Z,25.30
2018-07-02T12:46:51.446Z,25.20
2018-07-02T12:49:20.316Z,24.80
2018-07-02T12:51:48.717Z,24.80
2018-07-02T12:54:17.710Z,25.10
2018-07-02T12:56:47.631Z,25.20
2018-07-02T12:59:15.786Z,25.30
2018-07-02T13:01:44.354Z,25.40
2018-07-02T13:04:13.222Z,25.10
2018-07-02T13:06:41.342Z,25.00
2018-07-02T13:09:11.295Z,25.30
2018-07-02T13:11:40.342Z,25.30
2018-07-02T13:14:09.715Z,25.20
2018-07-02T13:16:39.103Z,25.50
2018-07-02T13:19:07.332Z,25.00
2018-07-02T13:21:36.056Z,25.30
2018-07-02T13:24:04.492Z,25.70
2018-07-02T13:26:32.934Z,25.80
2018-07-02T13:29:01.309Z,26.00
2018-07-02T13:31:29.652Z,26.00
2018-07-02T13:33:58.858Z,25.60
2018-07-02T13:36:29.826Z,26.00
2018-07-02T13:38:58.356Z,25.90
2018-07-02T13:41:26.861Z,26.10
2018-07-02T13:43:55.010Z,26.40
2018-07-02T13:46:23.334Z,26.30
2018-07-02T13:48:54.679Z,25.80
2018-07-02T13:51:24.386Z,25.50
2018-07-02T13:53:52.654Z,25.30
2018-07-02T13:56:21.945Z,25.30
2018-07-02T13:58:50.649Z,25.80
2018-07-02T14:01:18.801Z,26.00
2018-07-02T14:03:47.715Z,25.90
2018-07-02T14:06:15.985Z,25.50
2018-07-02T14:08:45.091Z,25.20
2018-07-02T14:11:13.419Z,24.90
2018-07-02T14:13:41.700Z,25.20
2018-07-02T14:16:11.227Z,25.20
2018-07-02T14:18:40.023Z,25.70
2018-07-02T14:21:08.387Z,26.00
2018-07-02T14:23:36.567Z,26.10
2018-07-02T14:26:04.874Z,26.10
2018-07-02T14:28:33.601Z,25.80
2018-07-02T14:31:01.808Z,26.00
2018-07-02T14:33:30.945Z,26.00
2018-07-02T14:36:00.612Z,26.00
2018-07-02T14:38:29.702Z,26.20
2018-07-02T14:40:58.088Z,26.00
2018-07-02T14:43:27.683Z,26.10
2018-07-02T14:45:55.854Z,26.00
2018-07-02T14:48:24.340Z,26.00
2018-07-02T14:50:52.698Z,25.80
2018-07-02T14:53:21.800Z,26.10
2018-07-02T14:55:51.419Z,26.20
2018-07-02T14:58:20.955Z,26.00
2018-07-02T15:00:48.977Z,26.30
2018-07-02T15:03:17.383Z,26.30
2018-07-02T15:05:45.353Z,26.20
2018-07-02T15:08:13.609Z,26.30
2018-07-02T15:10:41.776Z,26.20
2018-07-02T15:13:09.986Z,26.40
2018-07-02T15:15:38.674Z,26.20
2018-07-02T15:18:07.202Z,26.20
2018-07-02T15:20:36.358Z,26.20
2018-07-02T15:23:04.774Z,25.90
2018-07-02T15:25:32.937Z,26.10
2018-07-02T15:28:03.312Z,26.20
2018-07-02T15:30:31.466Z,25.90
2018-07-02T15:32:59.670Z,25.90
2018-07-02T15:35:28.019Z,26.10
2018-07-02T15:37:56.163Z,26.30
2018-07-02T15:40:25.421Z,26.10
2018-07-02T15:42:54.512Z,26.10
2018-07-02T15:45:23.100Z,26.20
2018-07-02T15:47:51.542Z,26.20
2018-07-02T15:50:20.433Z,26.10
2018-07-02T15:52:49.099Z,26.20
2018-07-02T15:55:17.378Z,26.10
2018-07-02T15:57:47.374Z,26.00
2018-07-02T16:00:15.918Z,25.80
2018-07-02T16:02:45.657Z,25.90
2018-07-02T16:05:13.779Z,25.90
2018-07-02T16:07:41.998Z,26.00
2018-07-02T16:10:11.224Z,26.00
2018-07-02T16:12:42.884Z,26.10
2018-07-02T16:15:10.922Z,25.80
2018-07-02T16:17:39.385Z,25.60
2018-07-02T16:20:08.061Z,25.70
2018-07-02T16:22:36.270Z,25.90
2018-07-02T16:25:04.590Z,25.60
2018-07-02T16:27:33.894Z,25.70
2018-07-02T16:30:03.066Z,25.70
2018-07-02T16:32:32.674Z,25.80
2018-07-02T16:35:01.839Z,25.90
2018-07-02T16:37:30.958Z,25.60
2018-07-02T16:39:59.950Z,25.60
2018-07-02T16:42:28.216Z,25.60
2018-07-02T16:44:56.597Z,25.40
2018-07-02T16:47:24.732Z,25.20
2018-07-02T16:49:54.842Z,25.00
2018-07-02T16:52:27.911Z,25.20
2018-07-02T16:54:56.791Z,25.30
2018-07-02T16:57:26.168Z,25.20
2018-07-02T16:59:54.761Z,25.30
2018-07-02T17:02:23.215Z,25.40
2018-07-02T17:04:51.475Z,25.40
2018-07-02T17:07:19.719Z,25.00
2018-07-02T17:09:49.101Z,25.00
2018-07-02T17:12:22.038Z,24.90
2018-07-02T17:14:50.475Z,24.90
2018-07-02T17:17:19.791Z,24.80
2018-07-02T17:19:48.618Z,24.80
2018-07-02T17:22:17.828Z,24.70
2018-07-02T17:24:45.833Z,24.60
2018-07-02T17:27:13.871Z,24.50
2018-07-02T17:29:41.976Z,24.50
2018-07-02T17:32:12.258Z,24.60
2018-07-02T17:34:41.277Z,24.70
2018-07-02T17:37:10.285Z,24.70
2018-07-02T17:39:39.893Z,24.70
2018-07-02T17:42:08.565Z,24.70
2018-07-02T17:44:36.833Z,24.60
2018-07-02T17:47:05.455Z,24.40
2018-07-02T17:49:33.646Z,24.40
2018-07-02T17:52:03.575Z,24.30
2018-07-02T17:54:33.830Z,24.30
2018-07-02T17:57:05.335Z,24.20
2018-07-02T17:59:37.910Z,24.20
2018-07-02T18:02:05.998Z,24.10
2018-07-02T18:04:36.482Z,24.10
2018-07-02T18:07:05.972Z,24.00
2018-07-02T18:09:35.290Z,23.90
2018-07-02T18:12:06.110Z,23.80
2018-07-02T18:14:35.070Z,23.60
2018-07-02T18:17:09.438Z,23.50
2018-07-02T18:19:41.062Z,23.40
2018-07-02T18:22:13.646Z,23.40
2018-07-02T18:24:43.182Z,23.30
2018-07-02T18:27:11.449Z,23.20
2018-07-02T18:29:39.753Z,23.20
2018-07-02T18:34:38.170Z,23.20
2018-07-02T18:37:09.522Z,23.10
2018-07-02T18:39:37.927Z,23.00
2018-07-02T18:42:07.197Z,23.00
2018-07-02T18:44:37.063Z,22.90
2018-07-02T18:47:07.051Z,22.90
2018-07-02T18:49:37.462Z,22.80
2018-07-02T18:52:06.223Z,22.80
2018-07-02T18:54:34.235Z,22.70
2018-07-02T18:57:03.258Z,22.70
2018-07-02T18:59:32.409Z,22.60
2018-07-02T19:02:03.071Z,22.50
2018-07-02T19:04:31.566Z,22.50
2018-07-02T19:06:59.771Z,22.40
2018-07-02T19:09:27.906Z,22.30
2018-07-02T19:11:56.030Z,22.30
2018-07-02T19:14:24.629Z,22.10
2018-07-02T19:16:53.000Z,22.00
2018-07-02T19:19:26.003Z,22.00
2018-07-02T19:21:56.090Z,22.00
2018-07-02T19:24:25.249Z,21.90
2018-07-02T19:26:53.991Z,21.80
2018-07-02T19:29:22.431Z,21.70
2018-07-02T19:31:51.747Z,21.70
2018-07-02T19:34:20.790Z,21.60
2018-07-02T19:36:51.979Z,21.60
2018-07-02T19:39:21.322Z,21.50
2018-07-02T19:41:50.250Z,21.50
2018-07-02T19:44:19.877Z,21.30
2018-07-02T19:46:48.043Z,21.20
2018-07-02T19:49:16.358Z,21.20
2018-07-02T19:51:44.932Z,21.10
2018-07-02T19:54:13.351Z,21.00
2018-07-02T19:56:42.424Z,20.90
2018-07-02T19:59:14.777Z,20.90
2018-07-02T20:01:42.874Z,20.80
2018-07-02T20:04:11.743Z,20.70
2018-07-02T20:06:40.709Z,20.60
2018-07-02T20:09:13.628Z,20.50
2018-07-02T20:11:43.630Z,20.50
2018-07-02T20:14:14.383Z,20.50
2018-07-02T20:16:42.590Z,20.40
2018-07-02T20:19:13.949Z,20.30
2018-07-02T20:22:14.014Z,20.20
2018-07-02T20:24:42.128Z,20.20
2018-07-02T20:27:12.926Z,20.10
2018-07-02T20:29:42.960Z,20.00
2018-07-02T20:32:11.736Z,19.90
2018-07-02T20:34:40.576Z,19.90
2018-07-02T20:37:12.529Z,19.90
2018-07-02T20:39:41.579Z,19.80
2018-07-02T20:42:10.591Z,19.80
2018-07-02T20:44:41.181Z,19.70
2018-07-02T20:47:09.873Z,19.60
2018-07-02T20:49:38.356Z,19.50
2018-07-02T20:52:08.266Z,19.50
2018-07-02T20:54:38.302Z,19.40
2018-07-02T20:57:06.527Z,19.50
2018-07-02T20:59:35.106Z,19.40
2018-07-02T21:02:05.331Z,19.40
2018-07-02T21:04:34.338Z,19.30
2018-07-02T21:07:05.390Z,19.30
2018-07-02T21:09:33.407Z,19.20
2018-07-02T21:12:03.198Z,19.20
2018-07-02T21:14:31.346Z,19.20
2018-07-02T21:17:00.653Z,19.10
2018-07-02T21:19:31.390Z,19.10
2018-07-02T21:21:59.567Z,19.10
2018-07-02T21:24:27.901Z,19.10
2018-07-02T21:26:58.099Z,19.00
2018-07-02T21:29:27.443Z,19.00
2018-07-02T21:31:56.579Z,18.90
2018-07-02T21:34:25.950Z,18.90
2018-07-02T21:36:57.514Z,18.80
2018-07-02T21:39:26.831Z,18.70
2018-07-02T21:41:56.054Z,18.70
2018-07-02T21:44:26.613Z,18.60
2018-07-02T21:46:55.870Z,18.50
2018-07-02T21:49:24.594Z,18.40
2018-07-02T21:51:59.821Z,18.40
2018-07-02T21:54:30.325Z,18.30
2018-07-02T21:57:03.123Z,18.30
2018-07-02T21:59:31.374Z,18.30
2018-07-02T22:01:59.819Z,18.30
2018-07-02T22:04:29.263Z,18.20
2018-07-02T22:06:57.772Z,18.20
2018-07-02T22:09:26.289Z,18.20
2018-07-02T22:11:56.340Z,18.20
2018-07-02T22:14:25.243Z,18.10
2018-07-02T22:16:53.795Z,18.10
2018-07-02T22:19:22.904Z,18.10
2018-07-02T22:21:52.503Z,18.00
2018-07-02T22:24:20.953Z,18.00
2018-07-02T22:26:54.053Z,18.00
2018-07-02T22:29:22.360Z,17.90
2018-07-02T22:31:50.749Z,17.80
2018-07-02T22:34:19.929Z,17.80
2018-07-02T22:36:48.231Z,17.80
2018-07-02T22:39:16.740Z,17.60
2018-07-02T22:41:45.776Z,17.50
2018-07-02T22:44:14.222Z,17.30
2018-07-02T22:46:44.983Z,17.00
2018-07-02T22:49:14.513Z,16.80
2018-07-02T22:51:43.346Z,16.60
2018-07-02T22:54:13.767Z,16.50
2018-07-02T22:56:42.387Z,16.40
2018-07-02T22:59:11.007Z,16.20
2018-07-02T23:01:39.415Z,16.10
2018-07-02T23:04:07.483Z,16.00
2018-07-02T23:06:38.107Z,16.00
2018-07-02T23:09:11.280Z,15.90
2018-07-02T23:11:39.382Z,15.90
2018-07-02T23:14:10.610Z,15.90
2018-07-02T23:16:38.697Z,15.70
2018-07-02T23:19:06.725Z,15.50
2018-07-02T23:21:35.177Z,15.30
2018-07-02T23:24:03.351Z,15.20
2018-07-02T23:26:31.832Z,15.20
2018-07-02T23:28:59.821Z,15.20
2018-07-02T23:31:28.009Z,15.30
2018-07-02T23:33:57.682Z,14.80
2018-07-02T23:36:25.734Z,14.90
2018-07-02T23:38:53.794Z,14.80
2018-07-02T23:41:22.050Z,14.50
2018-07-02T23:43:51.066Z,14.50
2018-07-02T23:46:19.092Z,14.40
2018-07-02T23:48:48.745Z,14.20
2018-07-02T23:51:16.926Z,14.30
2018-07-02T23:53:45.250Z,14.40
2018-07-02T23:56:13.559Z,14.50
2018-07-02T23:58:42.673Z,14.40
